createdAt,value
2017-05-29T00:02:16.526Z,14.68
2017-05-29T00:04:44.936Z,18.92
2017-05-29T00:07:13.279Z,14.16
2017-05-29T00:09:41.693Z,15.62
2017-05-29T00:12:10.019Z,10.50
2017-05-29T00:14:38.407Z,11.66
2017-05-29T00:17:06.724Z,10.80
2017-05-29T00:19:35.069Z,11.80
2017-05-29T00:22:03.384Z,10.44
2017-05-29T00:24:31.744Z,12.20
2017-05-29T00:27:00.061Z,12.02
2017-05-29T00:29:28.405Z,11.26
2017-05-29T00:31:56.737Z,9.38
2017-05-29T00:34:26.033Z,9.96
2017-05-29T00:36:54.371Z,10.20
2017-05-29T00:39:22.689Z,10.36
2017-05-29T00:41:51.045Z,9.52
2017-05-29T00:44:19.356Z,9.70
2017-05-29T00:46:47.663Z,10.28
2017-05-29T00:49:16.121Z,10.10
2017-05-29T00:51:44.435Z,9.98
2017-05-29T00:54:13.807Z,10.04
2017-05-29T00:56:42.114Z,9.44
2017-05-29T00:59:10.577Z,10.20
2017-05-29T01:01:38.891Z,10.18
2017-05-29T01:04:07.289Z,10.24
2017-05-29T01:06:34.860Z,10.98
2017-05-29T01:09:03.200Z,10.84
2017-05-29T01:11:31.532Z,11.08
2017-05-29T01:13:59.843Z,10.14
2017-05-29T01:16:28.204Z,9.94
2017-05-29T01:18:56.549Z,10.30
2017-05-29T01:21:24.864Z,10.56
2017-05-29T01:23:53.305Z,10.16
2017-05-29T01:26:21.619Z,11.14
2017-05-29T01:28:50.989Z,10.64
2017-05-29T01:31:19.306Z,9.84
2017-05-29T01:33:47.648Z,10.34
2017-05-29T01:36:15.969Z,9.28
2017-05-29T01:38:44.371Z,10.38
2017-05-29T01:41:12.704Z,9.68
2017-05-29T01:43:41.021Z,10.28
2017-05-29T01:46:09.432Z,11.48
2017-05-29T01:48:37.743Z,10.98
2017-05-29T01:51:06.105Z,10.40
2017-05-29T01:53:34.416Z,10.32
2017-05-29T01:56:02.728Z,11.10
2017-05-29T01:58:31.070Z,10.42
2017-05-29T02:00:59.388Z,10.62
2017-05-29T02:03:27.745Z,10.80
2017-05-29T02:05:56.056Z,9.74
2017-05-29T02:08:24.401Z,10.68
2017-05-29T02:10:52.775Z,9.86
2017-05-29T02:13:21.094Z,10.70
2017-05-29T02:15:49.462Z,10.76
2017-05-29T02:18:17.787Z,10.74
2017-05-29T02:20:46.128Z,9.72
2017-05-29T02:23:14.448Z,10.50
2017-05-29T02:25:42.761Z,10.94
2017-05-29T02:28:11.096Z,10.88
2017-05-29T02:30:39.504Z,10.12
2017-05-29T02:33:07.841Z,10.60
2017-05-29T02:35:36.156Z,10.10
2017-05-29T02:38:04.562Z,9.92
2017-05-29T02:40:32.868Z,10.88
2017-05-29T02:43:01.191Z,10.64
2017-05-29T02:45:29.527Z,10.40
2017-05-29T02:47:57.839Z,11.04
2017-05-29T02:50:26.176Z,10.42
2017-05-29T02:52:54.491Z,11.52
2017-05-29T02:55:22.919Z,10.72
2017-05-29T02:57:51.229Z,11.50
2017-05-29T03:00:19.543Z,11.60
2017-05-29T03:02:47.888Z,11.30
2017-05-29T03:05:16.204Z,11.74
2017-05-29T03:07:44.546Z,11.14
2017-05-29T03:10:12.869Z,11.28
2017-05-29T03:12:41.231Z,11.18
2017-05-29T03:15:09.552Z,11.70
2017-05-29T03:17:37.973Z,11.20
2017-05-29T03:20:06.313Z,10.96
2017-05-29T03:22:34.628Z,11.82
2017-05-29T03:25:02.966Z,11.48
2017-05-29T03:27:31.275Z,10.18
2017-05-29T03:29:59.614Z,10.82
2017-05-29T03:32:27.932Z,11.38
2017-05-29T03:34:56.248Z,10.88
2017-05-29T03:37:23.825Z,11.12
2017-05-29T03:39:52.146Z,10.32
2017-05-29T03:42:20.481Z,10.88
2017-05-29T03:44:48.797Z,11.18
2017-05-29T03:47:17.201Z,11.48
2017-05-29T03:49:45.520Z,11.58
2017-05-29T03:52:13.834Z,11.64
2017-05-29T03:54:42.172Z,11.08
2017-05-29T03:57:10.488Z,12.28
2017-05-29T03:59:38.880Z,11.76
2017-05-29T04:02:07.199Z,11.04
2017-05-29T04:04:35.558Z,11.48
2017-05-29T04:07:03.908Z,11.68
2017-05-29T04:09:32.272Z,11.10
2017-05-29T04:12:00.613Z,12.40
2017-05-29T04:14:28.923Z,11.70
2017-05-29T04:16:57.261Z,12.60
2017-05-29T04:19:25.576Z,11.54
2017-05-29T04:21:54.009Z,11.42
2017-05-29T04:24:22.337Z,11.50
2017-05-29T04:26:50.651Z,10.98
2017-05-29T04:29:19.020Z,11.92
2017-05-29T04:31:47.335Z,11.14
2017-05-29T04:34:15.670Z,11.12
2017-05-29T04:36:43.987Z,11.52
2017-05-29T04:39:12.344Z,10.28
2017-05-29T04:41:40.659Z,10.16
2017-05-29T04:44:08.986Z,10.28
2017-05-29T04:46:37.324Z,9.88
2017-05-29T04:49:05.636Z,9.96
2017-05-29T04:51:33.977Z,9.62
2017-05-29T04:54:02.291Z,10.46
2017-05-29T04:56:30.687Z,9.60
2017-05-29T04:58:58.999Z,10.26
2017-05-29T05:01:27.363Z,10.34
2017-05-29T05:03:55.737Z,10.02
2017-05-29T05:06:24.084Z,9.78
2017-05-29T05:08:52.411Z,10.20
2017-05-29T05:11:20.741Z,10.12
2017-05-29T05:13:49.089Z,9.78
2017-05-29T05:16:17.411Z,10.46
2017-05-29T05:18:45.728Z,11.94
2017-05-29T05:21:14.086Z,11.04
2017-05-29T05:23:42.443Z,10.88
2017-05-29T05:26:10.846Z,11.78
2017-05-29T05:28:39.209Z,12.20
2017-05-29T05:31:07.547Z,11.78
2017-05-29T05:33:35.856Z,12.28
2017-05-29T05:36:04.169Z,11.88
2017-05-29T05:38:32.538Z,12.14
2017-05-29T05:41:00.864Z,12.30
2017-05-29T05:43:29.209Z,12.78
2017-05-29T05:45:57.529Z,12.00
2017-05-29T05:48:25.966Z,12.54
2017-05-29T05:50:54.290Z,12.72
2017-05-29T05:53:22.640Z,12.68
2017-05-29T05:55:50.976Z,12.42
2017-05-29T05:58:19.292Z,12.32
2017-05-29T06:00:47.660Z,11.98
2017-05-29T06:03:15.980Z,13.42
2017-05-29T06:05:44.317Z,12.96
2017-05-29T06:08:12.656Z,12.56
2017-05-29T06:10:40.981Z,12.20
2017-05-29T06:13:09.340Z,12.70
2017-05-29T06:15:37.664Z,12.84
2017-05-29T06:18:05.995Z,13.10
2017-05-29T06:20:34.501Z,12.56
2017-05-29T06:23:02.833Z,13.10
2017-05-29T06:25:31.178Z,12.00
2017-05-29T06:27:59.504Z,12.72
2017-05-29T06:30:27.867Z,12.84
2017-05-29T06:32:56.188Z,13.38
2017-05-29T06:35:24.523Z,13.94
2017-05-29T06:37:52.865Z,13.94
2017-05-29T06:40:21.180Z,13.96
2017-05-29T06:42:49.533Z,14.10
2017-05-29T06:45:17.854Z,18.82
2017-05-29T06:47:46.173Z,14.04
2017-05-29T06:50:14.509Z,14.28
2017-05-29T06:52:42.824Z,14.54
2017-05-29T06:55:11.164Z,15.18
2017-05-29T06:57:38.712Z,14.34
2017-05-29T07:00:07.036Z,13.10
2017-05-29T07:02:35.377Z,13.78
2017-05-29T07:05:03.689Z,13.12
2017-05-29T07:07:32.048Z,15.48
2017-05-29T07:10:00.368Z,11.54
2017-05-29T07:12:28.688Z,13.72
2017-05-29T07:14:57.039Z,12.86
2017-05-29T07:17:25.352Z,13.00
2017-05-29T07:19:53.733Z,11.84
2017-05-29T07:22:22.051Z,13.82
2017-05-29T07:24:50.362Z,12.40
2017-05-29T07:27:18.697Z,12.98
2017-05-29T07:29:46.248Z,12.18
2017-05-29T07:32:14.589Z,12.04
2017-05-29T07:34:44.856Z,11.58
2017-05-29T07:37:13.190Z,11.42
2017-05-29T07:39:41.532Z,10.64
2017-05-29T07:42:09.860Z,10.76
2017-05-29T07:44:38.201Z,8.72
2017-05-29T07:47:05.760Z,12.10
2017-05-29T07:49:34.088Z,7.98
2017-05-29T07:52:02.419Z,8.14
2017-05-29T07:54:30.791Z,8.10
2017-05-29T07:56:58.350Z,7.80
2017-05-29T07:59:26.679Z,8.12
2017-05-29T08:01:55.055Z,7.48
2017-05-29T08:04:23.389Z,8.22
2017-05-29T08:06:51.700Z,8.62
2017-05-29T08:09:20.035Z,7.50
2017-05-29T08:11:48.349Z,8.36
2017-05-29T08:14:16.665Z,8.18
2017-05-29T08:16:45.004Z,8.46
2017-05-29T08:19:13.308Z,9.32
2017-05-29T08:21:41.652Z,8.62
2017-05-29T08:24:10.027Z,7.90
2017-05-29T08:26:38.479Z,8.12
2017-05-29T08:29:06.794Z,8.72
2017-05-29T08:31:35.146Z,8.08
2017-05-29T08:34:03.483Z,7.88
2017-05-29T08:36:31.113Z,8.76
2017-05-29T08:38:59.423Z,7.86
2017-05-29T08:41:27.770Z,7.46
2017-05-29T08:43:56.109Z,7.38
2017-05-29T08:46:24.448Z,8.14
2017-05-29T08:48:52.760Z,7.90
2017-05-29T08:51:21.127Z,7.44
2017-05-29T08:53:49.442Z,7.66
2017-05-29T08:56:17.780Z,8.18
2017-05-29T08:58:46.083Z,7.70
2017-05-29T09:01:14.421Z,7.80
2017-05-29T09:03:42.740Z,7.72
2017-05-29T09:06:11.086Z,7.82
2017-05-29T09:08:39.403Z,7.96
2017-05-29T09:11:07.743Z,8.26
2017-05-29T09:13:36.053Z,8.04
2017-05-29T09:16:04.393Z,8.18
2017-05-29T09:18:32.783Z,8.68
2017-05-29T09:21:01.125Z,8.04
2017-05-29T09:23:29.443Z,8.54
2017-05-29T09:25:57.785Z,8.40
2017-05-29T09:28:26.145Z,8.16
2017-05-29T09:30:54.528Z,8.26
2017-05-29T09:33:22.916Z,8.52
2017-05-29T09:35:51.268Z,8.24
2017-05-29T09:38:19.586Z,7.94
2017-05-29T09:40:47.923Z,8.56
2017-05-29T09:43:16.242Z,8.16
2017-05-29T09:45:44.588Z,8.50
2017-05-29T09:48:12.906Z,8.02
2017-05-29T09:50:41.251Z,7.94
2017-05-29T09:53:09.575Z,7.00
2017-05-29T09:55:37.924Z,8.06
2017-05-29T09:58:06.252Z,8.08
2017-05-29T10:00:34.604Z,8.76
2017-05-29T10:03:02.925Z,7.22
2017-05-29T10:05:31.285Z,7.56
2017-05-29T10:07:59.603Z,7.28
2017-05-29T10:10:27.965Z,7.18
2017-05-29T10:12:56.618Z,7.66
2017-05-29T10:15:24.932Z,7.00
2017-05-29T10:17:53.295Z,7.28
2017-05-29T10:20:20.882Z,7.56
2017-05-29T10:22:49.223Z,8.78
2017-05-29T10:25:17.540Z,7.98
2017-05-29T10:27:45.942Z,7.50
2017-05-29T10:30:18.635Z,7.60
2017-05-29T10:32:48.669Z,7.68
2017-05-29T10:35:17.003Z,7.08
2017-05-29T10:37:45.362Z,7.48
2017-05-29T10:40:15.411Z,7.32
2017-05-29T10:42:43.772Z,7.34
2017-05-29T10:45:12.334Z,7.58
2017-05-29T10:47:40.829Z,7.08
2017-05-29T10:50:09.317Z,7.60
2017-05-29T10:52:37.821Z,7.74
2017-05-29T10:55:06.497Z,7.54
2017-05-29T10:57:34.922Z,8.28
2017-05-29T11:00:07.455Z,7.04
2017-05-29T11:02:36.043Z,7.40
2017-05-29T11:05:04.355Z,7.12
2017-05-29T11:07:31.976Z,7.02
2017-05-29T11:10:00.296Z,7.08
2017-05-29T11:12:28.672Z,6.78
2017-05-29T11:14:56.987Z,6.90
2017-05-29T11:17:25.327Z,6.82
2017-05-29T11:19:53.652Z,7.08
2017-05-29T11:22:21.991Z,7.24
2017-05-29T11:24:50.313Z,6.70
2017-05-29T11:27:17.892Z,7.12
2017-05-29T11:29:46.209Z,7.08
2017-05-29T11:32:14.549Z,7.36
2017-05-29T11:34:42.869Z,6.68
2017-05-29T11:37:11.225Z,6.60
2017-05-29T11:39:39.543Z,6.86
2017-05-29T11:42:07.884Z,6.68
2017-05-29T11:44:36.202Z,7.50
2017-05-29T11:47:04.608Z,7.78
2017-05-29T11:49:32.920Z,7.08
2017-05-29T11:52:01.255Z,7.06
2017-05-29T11:54:29.578Z,6.38
2017-05-29T11:56:57.913Z,5.78
2017-05-29T11:59:26.242Z,6.26
2017-05-29T12:01:54.588Z,6.68
2017-05-29T12:04:23.113Z,5.48
2017-05-29T12:06:51.472Z,6.10
2017-05-29T12:09:19.108Z,6.74
2017-05-29T12:11:46.682Z,6.74
2017-05-29T12:14:14.996Z,6.42
2017-05-29T12:16:43.359Z,6.40
2017-05-29T12:19:11.668Z,6.70
2017-05-29T12:21:39.979Z,6.18
2017-05-29T12:24:08.348Z,6.78
2017-05-29T12:26:36.698Z,6.10
2017-05-29T12:29:05.039Z,6.22
2017-05-29T12:31:33.358Z,6.50
2017-05-29T12:34:01.698Z,7.08
2017-05-29T12:36:30.066Z,6.88
2017-05-29T12:38:58.400Z,6.42
2017-05-29T12:41:26.717Z,6.78
2017-05-29T12:43:55.065Z,7.18
2017-05-29T12:46:23.386Z,7.12
2017-05-29T12:48:51.724Z,7.10
2017-05-29T12:51:20.044Z,7.36
2017-05-29T12:53:49.397Z,7.66
2017-05-29T12:56:17.705Z,6.40
2017-05-29T12:58:46.049Z,6.94
2017-05-29T13:01:14.360Z,6.82
2017-05-29T13:03:42.697Z,7.12
2017-05-29T13:06:11.026Z,6.94
2017-05-29T13:08:39.365Z,7.20
2017-05-29T13:11:06.912Z,6.60
2017-05-29T13:13:35.255Z,6.84
2017-05-29T13:16:03.569Z,6.98
2017-05-29T13:18:31.911Z,6.98
2017-05-29T13:21:00.291Z,7.10
2017-05-29T13:23:28.629Z,7.16
2017-05-29T13:25:56.935Z,7.20
2017-05-29T13:28:25.275Z,6.90
2017-05-29T13:30:53.591Z,7.04
2017-05-29T13:33:21.923Z,6.78
2017-05-29T13:35:50.231Z,6.84
2017-05-29T13:38:18.574Z,7.00
2017-05-29T13:40:46.884Z,7.12
2017-05-29T13:43:15.244Z,6.90
2017-05-29T13:45:43.556Z,7.18
2017-05-29T13:48:11.914Z,7.42
2017-05-29T13:50:40.229Z,7.00
2017-05-29T13:53:08.571Z,7.08
2017-05-29T13:55:36.884Z,6.34
2017-05-29T13:58:05.221Z,6.94
2017-05-29T14:00:33.533Z,6.46
2017-05-29T14:03:01.866Z,6.72
2017-05-29T14:05:30.177Z,7.04
2017-05-29T14:07:58.526Z,6.86
2017-05-29T14:10:26.851Z,6.82
2017-05-29T14:12:55.183Z,6.22
2017-05-29T14:15:23.495Z,7.00
2017-05-29T14:17:51.832Z,6.42
2017-05-29T14:20:20.171Z,6.50
2017-05-29T14:22:48.489Z,6.26
2017-05-29T14:25:16.827Z,6.08
2017-05-29T14:27:45.139Z,5.94
2017-05-29T14:30:13.523Z,6.88
2017-05-29T14:32:41.846Z,6.14
2017-05-29T14:35:10.223Z,6.50
2017-05-29T14:37:38.541Z,6.40
2017-05-29T14:40:11.075Z,6.54
2017-05-29T14:42:39.380Z,6.52
2017-05-29T14:45:07.713Z,6.78
2017-05-29T14:47:36.019Z,6.60
2017-05-29T14:50:04.393Z,6.64
2017-05-29T14:52:32.703Z,6.52
2017-05-29T14:55:01.044Z,6.50
2017-05-29T14:57:29.365Z,5.82
2017-05-29T14:59:57.710Z,5.94
2017-05-29T15:02:26.034Z,5.40
2017-05-29T15:04:54.376Z,6.12
2017-05-29T15:07:22.693Z,6.16
2017-05-29T15:09:51.045Z,6.16
2017-05-29T15:12:19.368Z,5.84
2017-05-29T15:14:47.719Z,5.64
2017-05-29T15:17:16.028Z,6.42
2017-05-29T15:19:44.372Z,6.10
2017-05-29T15:22:12.683Z,5.72
2017-05-29T15:24:41.024Z,6.26
2017-05-29T15:27:09.340Z,5.80
2017-05-29T15:29:37.689Z,5.68
2017-05-29T15:32:06.015Z,6.02
2017-05-29T15:34:34.355Z,6.42
2017-05-29T15:37:02.673Z,6.12
2017-05-29T15:39:31.012Z,6.04
2017-05-29T15:41:59.320Z,6.08
2017-05-29T15:44:27.664Z,6.02
2017-05-29T15:46:55.996Z,6.26
2017-05-29T15:49:24.343Z,5.66
2017-05-29T15:51:52.664Z,5.70
2017-05-29T15:54:21.003Z,5.68
2017-05-29T15:56:49.324Z,6.22
2017-05-29T15:59:17.670Z,5.86
2017-05-29T16:01:46.005Z,6.10
2017-05-29T16:04:14.370Z,6.06
2017-05-29T16:06:42.692Z,5.56
2017-05-29T16:09:11.062Z,5.38
2017-05-29T16:11:39.377Z,6.42
2017-05-29T16:14:07.720Z,6.26
2017-05-29T16:16:36.037Z,6.54
2017-05-29T16:19:04.386Z,6.82
2017-05-29T16:21:32.728Z,6.12
2017-05-29T16:24:01.057Z,6.54
2017-05-29T16:26:29.399Z,6.52
2017-05-29T16:28:57.716Z,7.10
2017-05-29T16:31:26.060Z,7.22
2017-05-29T16:33:54.377Z,7.08
2017-05-29T16:36:21.961Z,6.86
2017-05-29T16:38:50.276Z,7.60
2017-05-29T16:41:18.629Z,6.88
2017-05-29T16:43:46.963Z,7.60
2017-05-29T16:46:15.314Z,6.98
2017-05-29T16:48:43.733Z,6.88
2017-05-29T16:51:12.072Z,6.68
2017-05-29T16:53:40.392Z,6.96
2017-05-29T16:56:08.766Z,6.94
2017-05-29T16:58:37.103Z,6.98
2017-05-29T17:01:05.449Z,7.30
2017-05-29T17:03:33.782Z,6.84
2017-05-29T17:06:02.125Z,7.00
2017-05-29T17:08:30.450Z,7.32
2017-05-29T17:10:58.807Z,6.80
2017-05-29T17:13:27.121Z,6.64
2017-05-29T17:15:55.514Z,6.30
2017-05-29T17:18:23.854Z,7.00
2017-05-29T17:20:52.205Z,6.84
2017-05-29T17:23:20.532Z,6.60
2017-05-29T17:25:48.878Z,6.68
2017-05-29T17:28:17.188Z,7.18
2017-05-29T17:30:45.530Z,7.24
2017-05-29T17:33:13.849Z,6.90
2017-05-29T17:35:42.231Z,8.50
2017-05-29T17:38:11.560Z,7.42
2017-05-29T17:40:39.905Z,7.16
2017-05-29T17:43:08.221Z,7.44
2017-05-29T17:45:36.922Z,7.68
2017-05-29T17:48:05.232Z,7.10
2017-05-29T17:50:33.572Z,7.50
2017-05-29T17:53:01.880Z,7.26
2017-05-29T17:55:30.223Z,7.44
2017-05-29T17:57:58.539Z,7.24
2017-05-29T18:00:26.880Z,6.80
2017-05-29T18:02:55.221Z,7.56
2017-05-29T18:05:23.561Z,6.82
2017-05-29T18:07:51.889Z,7.66
2017-05-29T18:10:20.231Z,6.72
2017-05-29T18:12:48.551Z,7.38
2017-05-29T18:15:16.896Z,7.54
2017-05-29T18:17:44.447Z,7.60
2017-05-29T18:20:12.765Z,7.12
2017-05-29T18:22:41.124Z,6.66
2017-05-29T18:25:09.432Z,6.98
2017-05-29T18:27:36.996Z,7.20
2017-05-29T18:30:05.307Z,7.38
2017-05-29T18:32:33.653Z,7.18
2017-05-29T18:35:01.977Z,6.92
2017-05-29T18:37:30.317Z,7.46
2017-05-29T18:39:58.635Z,7.78
2017-05-29T18:42:26.977Z,7.78
2017-05-29T18:44:55.316Z,8.36
2017-05-29T18:47:23.665Z,8.38
2017-05-29T18:49:51.974Z,7.26
2017-05-29T18:52:20.380Z,8.22
2017-05-29T18:54:48.701Z,7.44
2017-05-29T18:57:17.056Z,7.72
2017-05-29T18:59:44.600Z,7.38
2017-05-29T19:02:13.003Z,8.12
2017-05-29T19:04:41.317Z,8.16
2017-05-29T19:07:09.674Z,7.74
2017-05-29T19:09:38.092Z,8.58
2017-05-29T19:12:06.471Z,8.86
2017-05-29T19:14:34.985Z,8.16
2017-05-29T19:17:03.328Z,7.70
2017-05-29T19:19:31.667Z,7.52
2017-05-29T19:22:00.182Z,8.22
2017-05-29T19:24:28.506Z,7.60
2017-05-29T19:26:56.859Z,7.80
2017-05-29T19:29:24.399Z,8.14
2017-05-29T19:31:52.740Z,7.70
2017-05-29T19:34:21.053Z,7.64
2017-05-29T19:36:49.395Z,7.56
2017-05-29T19:39:17.730Z,7.24
2017-05-29T19:41:46.091Z,8.20
2017-05-29T19:44:14.399Z,8.20
2017-05-29T19:46:42.739Z,7.12
2017-05-29T19:49:11.066Z,8.02
2017-05-29T19:51:39.463Z,8.40
2017-05-29T19:54:07.771Z,7.94
2017-05-29T19:56:36.106Z,7.94
2017-05-29T19:59:04.411Z,7.56
2017-05-29T20:01:32.851Z,7.84
2017-05-29T20:04:01.171Z,8.08
2017-05-29T20:06:29.516Z,7.98
2017-05-29T20:08:57.836Z,8.26
2017-05-29T20:11:26.185Z,7.98
2017-05-29T20:13:54.504Z,8.72
2017-05-29T20:16:22.862Z,8.72
2017-05-29T20:18:51.320Z,8.10
2017-05-29T20:21:19.644Z,8.86
2017-05-29T20:23:47.999Z,8.82
2017-05-29T20:26:16.307Z,8.64
2017-05-29T20:28:44.652Z,9.00
2017-05-29T20:31:12.961Z,8.82
2017-05-29T20:33:41.412Z,8.94
2017-05-29T20:36:09.761Z,8.28
2017-05-29T20:38:38.115Z,9.08
2017-05-29T20:41:06.429Z,9.12
2017-05-29T20:43:34.793Z,8.82
2017-05-29T20:46:03.108Z,8.60
2017-05-29T20:48:31.514Z,9.20
2017-05-29T20:50:59.860Z,9.82
2017-05-29T20:53:28.214Z,9.16
2017-05-29T20:55:56.608Z,10.16
2017-05-29T20:58:24.957Z,8.66
2017-05-29T21:00:53.270Z,8.70
2017-05-29T21:03:21.613Z,9.94
2017-05-29T21:05:49.941Z,8.90
2017-05-29T21:08:18.329Z,9.32
2017-05-29T21:10:46.658Z,10.14
2017-05-29T21:13:15.000Z,9.70
2017-05-29T21:15:43.314Z,9.72
2017-05-29T21:18:11.664Z,9.00
2017-05-29T21:20:39.984Z,9.42
2017-05-29T21:23:08.397Z,10.46
2017-05-29T21:25:36.716Z,9.70
2017-05-29T21:28:05.154Z,9.40
2017-05-29T21:30:33.481Z,9.20
2017-05-29T21:33:01.929Z,8.94
2017-05-29T21:35:30.244Z,10.10
2017-05-29T21:37:58.564Z,9.06
2017-05-29T21:40:26.916Z,9.02
2017-05-29T21:42:55.227Z,9.14
2017-05-29T21:45:23.573Z,9.78
2017-05-29T21:47:51.943Z,9.46
2017-05-29T21:50:20.304Z,9.78
2017-05-29T21:52:48.624Z,10.32
2017-05-29T21:55:16.937Z,8.94
2017-05-29T21:57:45.289Z,11.42
2017-05-29T22:00:13.600Z,9.66
2017-05-29T22:02:41.974Z,8.76
2017-05-29T22:05:10.311Z,9.46
2017-05-29T22:07:37.918Z,7.98
2017-05-29T22:10:06.246Z,9.22
2017-05-29T22:12:34.571Z,10.42
2017-05-29T22:15:02.915Z,9.36
2017-05-29T22:17:30.459Z,9.28
2017-05-29T22:19:58.819Z,9.56
2017-05-29T22:22:27.180Z,9.62
2017-05-29T22:24:55.505Z,10.00
2017-05-29T22:27:23.841Z,9.06
2017-05-29T22:29:52.147Z,9.94
2017-05-29T22:32:20.898Z,10.20
2017-05-29T22:34:49.213Z,9.32
2017-05-29T22:37:17.565Z,10.40
2017-05-29T22:39:45.897Z,9.04
2017-05-29T22:42:14.330Z,10.36
2017-05-29T22:44:42.676Z,9.96
2017-05-29T22:47:11.079Z,9.64
2017-05-29T22:49:39.431Z,9.28
2017-05-29T22:52:07.757Z,9.26
2017-05-29T22:54:36.165Z,9.10
2017-05-29T22:57:04.483Z,10.24
2017-05-29T22:59:32.881Z,10.18
2017-05-29T23:02:01.236Z,10.04
2017-05-29T23:04:29.560Z,10.18
2017-05-29T23:06:57.909Z,10.12
2017-05-29T23:09:26.243Z,9.22
2017-05-29T23:11:54.615Z,10.20
2017-05-29T23:14:23.851Z,10.02
2017-05-29T23:16:52.169Z,10.40
2017-05-29T23:19:20.536Z,9.60
2017-05-29T23:21:48.869Z,9.00
2017-05-29T23:24:18.216Z,10.00
2017-05-29T23:26:46.548Z,10.60
2017-05-29T23:29:14.902Z,10.76
2017-05-29T23:31:43.219Z,9.82
2017-05-29T23:34:12.452Z,11.18
2017-05-29T23:36:40.825Z,9.82
2017-05-29T23:39:09.181Z,10.48
2017-05-29T23:41:37.529Z,11.26
2017-05-29T23:44:05.849Z,10.82
2017-05-29T23:46:33.431Z,11.10
2017-05-29T23:49:01.775Z,11.38
2017-05-29T23:51:30.092Z,10.38
2017-05-29T23:53:58.457Z,10.70
2017-05-29T23:56:26.775Z,11.08
2017-05-29T23:58:55.124Z,10.80
